Weather at Bozeman Yellowstone International Airport

Public forecast

Using degrees Fahrenheit for public forecast. Weather courtesy of forecast.io.

Current aviation weather report (METAR) for Bozeman Yellowstone International Airport

Report is more than 6 hours old.

2024/05/27 23:56 (retrieved 1 day ago)

KBZN 282356Z 14008KT 10SM CLR 26/07 A2993 RMK AO2 SLP109 T02560067 10278 20211 56022

Closest aviation forecast (TAF) to Bozeman Yellowstone International Airport

Closest forecast is Malmstrom Air Force Base, 103.7 nm (192.1 km) N.

2024/05/28 21:17 (retrieved 3 hours ago)

TAF KGFA 282115Z 2821/3003 VRB06KT 9999 FEW120 QNH2987INS BECMG 2900/2901 22012G18KT 9000 -SHRA SCT050 SCT070 BKN150 QNH2983INS TEMPO 2902/2905 VRB15G30KT 6000 -TSRA SCT030 BKN050CB OVC070 520009 BECMG 2916/2917 25012G18KT 9000 -SHRA VCTS SCT080CB BKN100 QNH2994INS BECMG 2922/2923 26015G25KT 9999 NSW SCT100 QNH2994INS TX27/2822Z TN12/2914Z